Time;durP1;ratioP1;P1;durP2;ratioP2;P2;SDS_P1;SDS_P2;PMS_P1;PMS_P2;Temp;Humidity;BMP_temperature;BMP_pressure;BME280_temperature;BME280_humidity;BME280_pressure;Samples;Min_cycle;Max_cycle;Signal;HPM_P1;HPM_P2
2023/02/03 00:00:54;;;;;;;7.97;4.60;;;;;;;;;;5073090;28;20732;-76
2023/02/03 00:03:22;;;;;;;6.93;4.50;;;;;;;;;;5073628;28;20202;-77
2023/02/03 00:05:49;;;;;;;9.00;4.50;;;;;;;;;;5072815;28;20667;-77
2023/02/03 00:08:18;;;;;;;7.23;3.93;;;;;;;;;;5073459;28;20320;-77
2023/02/03 00:10:45;;;;;;;3.40;2.53;;;;;;;;;;5073308;28;20248;-77
2023/02/03 00:13:12;;;;;;;6.97;3.10;;;;;;;;;;5093300;28;20643;-76
2023/02/03 00:15:40;;;;;;;5.37;3.10;;;;;;;;;;5093492;28;20202;-76
2023/02/03 00:18:07;;;;;;;6.10;3.43;;;;;;;;;;5093704;28;20237;-77
2023/02/03 00:20:35;;;;;;;5.33;2.80;;;;;;;;;;5093218;28;20795;-76
2023/02/03 00:23:06;;;;;;;6.40;2.97;;;;;;;;;;5093249;28;20198;-77
2023/02/03 00:25:33;;;;;;;6.10;3.00;;;;;;;;;;5093425;28;20231;-77
2023/02/03 00:28:00;;;;;;;5.23;2.60;;;;;;;;;;5092962;28;20210;-77
2023/02/03 00:30:28;;;;;;;7.33;2.40;;;;;;;;;;5093075;28;20289;-77
2023/02/03 00:32:55;;;;;;;6.97;2.70;;;;;;;;;;5092914;28;20288;-76
2023/02/03 00:35:22;;;;;;;3.40;1.90;;;;;;;;;;5093196;28;20284;-76
2023/02/03 00:37:53;;;;;;;3.17;1.40;;;;;;;;;;5092882;28;20230;-77
2023/02/03 00:40:20;;;;;;;4.27;1.30;;;;;;;;;;5092906;28;20228;-77
2023/02/03 00:42:47;;;;;;;3.10;1.40;;;;;;;;;;5093210;28;20229;-77
2023/02/03 00:45:15;;;;;;;1.70;1.37;;;;;;;;;;5092977;28;20281;-77
2023/02/03 00:47:42;;;;;;;3.00;1.50;;;;;;;;;;5092889;28;20285;-76
2023/02/03 00:50:10;;;;;;;2.73;1.50;;;;;;;;;;5092777;28;20345;-77
2023/02/03 00:52:37;;;;;;;2.33;1.30;;;;;;;;;;5092722;28;20737;-76
2023/02/03 00:55:06;;;;;;;3.43;1.57;;;;;;;;;;5093076;28;20200;-76
2023/02/03 00:57:34;;;;;;;2.87;1.67;;;;;;;;;;5092470;28;20289;-76
2023/02/03 01:00:01;;;;;;;3.73;1.60;;;;;;;;;;5092356;28;20202;-76
2023/02/03 01:02:28;;;;;;;2.23;1.50;;;;;;;;;;5092608;28;20198;-77
2023/02/03 01:04:55;;;;;;;3.77;1.60;;;;;;;;;;5092793;28;20343;-76
2023/02/03 01:07:22;;;;;;;4.03;1.50;;;;;;;;;;5092353;28;20285;-76
2023/02/03 01:09:49;;;;;;;1.90;1.40;;;;;;;;;;5091123;28;20329;-76
2023/02/03 01:12:18;;;;;;;2.13;1.30;;;;;;;;;;5092919;28;20296;-76
2023/02/03 01:14:45;;;;;;;3.93;1.70;;;;;;;;;;5092341;28;20282;-77
2023/02/03 01:17:12;;;;;;;2.77;1.63;;;;;;;;;;5092304;28;20304;-77
2023/02/03 01:19:39;;;;;;;2.97;1.50;;;;;;;;;;5092288;28;20281;-76
2023/02/03 01:22:07;;;;;;;3.47;1.70;;;;;;;;;;5092463;28;20301;-77
2023/02/03 01:24:34;;;;;;;2.60;1.80;;;;;;;;;;5091647;28;20766;-76
2023/02/03 01:27:01;;;;;;;4.17;1.50;;;;;;;;;;5091563;28;20258;-76
2023/02/03 01:29:29;;;;;;;3.07;1.23;;;;;;;;;;5092395;28;20234;-77
2023/02/03 01:31:57;;;;;;;5.60;1.60;;;;;;;;;;5091872;28;20289;-76
2023/02/03 01:34:24;;;;;;;4.17;1.40;;;;;;;;;;5091981;28;20627;-76
2023/02/03 01:36:51;;;;;;;2.50;1.20;;;;;;;;;;5092271;28;20289;-77
2023/02/03 01:39:18;;;;;;;4.40;1.40;;;;;;;;;;5091853;28;20290;-75
2023/02/03 01:41:46;;;;;;;2.77;1.60;;;;;;;;;;5091624;28;20221;-77
2023/02/03 01:44:32;;;;;;;2.90;1.53;;;;;;;;;;5092347;28;20244;-76
2023/02/03 01:47:00;;;;;;;5.77;1.87;;;;;;;;;;5091559;28;20611;-77
2023/02/03 01:49:30;;;;;;;5.50;1.83;;;;;;;;;;5091793;28;20379;-76
2023/02/03 01:51:57;;;;;;;4.23;1.80;;;;;;;;;;5091459;28;20321;-75
2023/02/03 01:54:26;;;;;;;5.67;2.70;;;;;;;;;;5091461;28;20244;-77
2023/02/03 01:56:56;;;;;;;7.53;3.00;;;;;;;;;;5091791;28;20727;-76
2023/02/03 01:59:24;;;;;;;4.97;2.50;;;;;;;;;;5092082;28;20641;-77
2023/02/03 02:01:52;;;;;;;4.67;2.00;;;;;;;;;;5091713;28;20233;-77
2023/02/03 02:04:21;;;;;;;2.70;1.57;;;;;;;;;;5091485;28;20225;-76
2023/02/03 02:06:50;;;;;;;3.17;1.10;;;;;;;;;;5091401;28;20284;-77
2023/02/03 02:09:17;;;;;;;3.77;1.80;;;;;;;;;;5091431;28;20376;-76
2023/02/03 02:11:44;;;;;;;2.90;2.13;;;;;;;;;;5092016;28;20289;-76
2023/02/03 02:14:11;;;;;;;5.13;2.50;;;;;;;;;;5091530;28;20197;-77
2023/02/03 02:16:42;;;;;;;4.77;2.10;;;;;;;;;;5090788;28;20244;-77
2023/02/03 02:19:24;;;;;;;2.23;1.80;;;;;;;;;;5091793;28;20285;-76
2023/02/03 02:21:56;;;;;;;4.57;1.70;;;;;;;;;;5088906;28;20232;-77
2023/02/03 02:24:49;;;;;;;4.23;1.80;;;;;;;;;;5091698;28;20229;-77
2023/02/03 02:27:25;;;;;;;3.07;1.37;;;;;;;;;;5091287;28;20293;-77
2023/02/03 02:30:17;;;;;;;4.20;1.73;;;;;;;;;;5091434;28;20317;-77
2023/02/03 02:32:52;;;;;;;3.10;1.50;;;;;;;;;;5091753;28;20228;-77
2023/02/03 02:35:23;;;;;;;3.03;1.73;;;;;;;;;;5091286;28;20225;-76
2023/02/03 02:37:51;;;;;;;3.20;1.70;;;;;;;;;;5091310;28;20245;-76
2023/02/03 02:40:22;;;;;;;4.33;1.73;;;;;;;;;;5082638;28;20237;-77
2023/02/03 02:42:54;;;;;;;5.37;2.00;;;;;;;;;;5079108;28;20611;-77
2023/02/03 02:45:25;;;;;;;5.00;2.20;;;;;;;;;;5071100;28;20282;-77
2023/02/03 02:47:56;;;;;;;7.93;2.47;;;;;;;;;;5070720;28;20681;-77
2023/02/03 02:50:25;;;;;;;7.00;3.17;;;;;;;;;;5070568;28;20323;-77
2023/02/03 02:52:53;;;;;;;6.73;2.93;;;;;;;;;;5071413;28;20216;-77
2023/02/03 02:55:23;;;;;;;4.43;2.43;;;;;;;;;;5071113;28;20230;-76
2023/02/03 02:57:51;;;;;;;8.10;2.60;;;;;;;;;;5070720;28;20655;-77
2023/02/03 03:00:19;;;;;;;5.23;2.40;;;;;;;;;;5070854;28;20227;-77
2023/02/03 03:02:46;;;;;;;5.57;2.70;;;;;;;;;;5071070;28;20199;-78
2023/02/03 03:05:16;;;;;;;3.83;2.73;;;;;;;;;;5070871;28;20282;-76
2023/02/03 03:07:45;;;;;;;4.57;2.83;;;;;;;;;;5070851;28;20221;-77
2023/02/03 03:10:14;;;;;;;4.93;2.80;;;;;;;;;;5071385;28;20321;-77
2023/02/03 03:12:45;;;;;;;4.30;2.13;;;;;;;;;;5087380;28;20237;-76
2023/02/03 03:15:15;;;;;;;3.07;2.30;;;;;;;;;;5090840;28;20218;-76
2023/02/03 03:17:43;;;;;;;4.03;1.93;;;;;;;;;;5090667;28;20236;-77
2023/02/03 03:20:13;;;;;;;3.00;2.10;;;;;;;;;;5091092;28;20228;-77
2023/02/03 03:22:43;;;;;;;3.03;2.13;;;;;;;;;;5090862;28;20232;-77
2023/02/03 03:25:13;;;;;;;3.87;2.10;;;;;;;;;;5090878;28;20198;-77
2023/02/03 03:27:42;;;;;;;2.80;1.67;;;;;;;;;;5091043;28;20281;-77
2023/02/03 03:30:12;;;;;;;4.43;1.70;;;;;;;;;;5090740;28;20322;-77
2023/02/03 03:32:40;;;;;;;4.13;1.60;;;;;;;;;;5091073;28;20289;-77
2023/02/03 03:35:08;;;;;;;3.40;1.70;;;;;;;;;;5093765;28;20290;-77
2023/02/03 03:37:36;;;;;;;3.20;1.57;;;;;;;;;;5094651;28;20227;-77
2023/02/03 03:40:08;;;;;;;3.70;1.60;;;;;;;;;;5094074;28;20285;-77
2023/02/03 03:42:39;;;;;;;2.77;1.40;;;;;;;;;;5094191;28;20289;-77
2023/02/03 03:45:07;;;;;;;3.13;1.60;;;;;;;;;;5094954;28;20218;-77
2023/02/03 03:47:36;;;;;;;4.07;1.50;;;;;;;;;;5094722;28;20218;-77
2023/02/03 03:50:05;;;;;;;3.67;1.23;;;;;;;;;;5093706;28;20316;-77
2023/02/03 03:52:34;;;;;;;3.83;1.40;;;;;;;;;;5094031;28;20298;-76
2023/02/03 03:55:01;;;;;;;1.90;1.30;;;;;;;;;;5094367;28;20284;-77
2023/02/03 03:57:33;;;;;;;2.23;1.10;;;;;;;;;;5093680;28;20281;-76
2023/02/03 04:00:01;;;;;;;1.30;1.07;;;;;;;;;;5093848;28;20227;-77
2023/02/03 04:02:29;;;;;;;3.07;1.20;;;;;;;;;;5093282;28;20665;-77
2023/02/03 04:04:58;;;;;;;1.93;1.30;;;;;;;;;;5094582;28;20560;-76
2023/02/03 04:07:37;;;;;;;3.40;1.30;;;;;;;;;;5094089;28;20273;-77
2023/02/03 04:10:06;;;;;;;2.77;1.30;;;;;;;;;;5093476;28;20324;-77
2023/02/03 04:12:34;;;;;;;3.43;1.30;;;;;;;;;;5093278;28;20652;-76
2023/02/03 04:15:02;;;;;;;2.67;1.10;;;;;;;;;;5094241;28;20256;-76
2023/02/03 04:17:29;;;;;;;2.67;1.17;;;;;;;;;;5093229;28;20198;-77
2023/02/03 04:19:56;;;;;;;2.17;1.20;;;;;;;;;;5093346;28;20234;-76
2023/02/03 04:22:23;;;;;;;3.13;1.37;;;;;;;;;;5093378;28;20233;-77
2023/02/03 04:24:51;;;;;;;3.00;1.50;;;;;;;;;;5093564;28;20221;-77
2023/02/03 04:27:18;;;;;;;3.00;1.23;;;;;;;;;;5093813;28;20609;-77
2023/02/03 04:29:47;;;;;;;1.70;1.00;;;;;;;;;;5093555;28;20504;-76
2023/02/03 04:32:14;;;;;;;1.70;1.10;;;;;;;;;;5093325;28;20201;-76
2023/02/03 04:34:41;;;;;;;4.63;1.47;;;;;;;;;;5093271;28;20748;-78
2023/02/03 04:37:08;;;;;;;2.53;1.37;;;;;;;;;;5092764;28;20303;-76
2023/02/03 04:39:36;;;;;;;4.23;1.70;;;;;;;;;;5093441;28;20293;-76
2023/02/03 04:42:03;;;;;;;5.50;1.63;;;;;;;;;;5087770;28;20215;-77
2023/02/03 04:44:30;;;;;;;6.33;1.77;;;;;;;;;;5093114;28;20296;-77
2023/02/03 04:46:59;;;;;;;4.30;1.73;;;;;;;;;;5081988;28;20290;-76
2023/02/03 04:49:26;;;;;;;2.43;1.50;;;;;;;;;;5073005;28;20330;-77
2023/02/03 04:51:53;;;;;;;3.83;1.30;;;;;;;;;;5073009;28;20293;-76
2023/02/03 04:54:20;;;;;;;1.80;1.10;;;;;;;;;;5073323;28;20732;-76
2023/02/03 04:56:48;;;;;;;2.30;1.40;;;;;;;;;;5092772;28;20284;-77
2023/02/03 04:59:15;;;;;;;2.90;1.20;;;;;;;;;;5092987;28;20218;-76
2023/02/03 05:01:42;;;;;;;2.20;1.20;;;;;;;;;;5091936;28;20285;-76
2023/02/03 05:04:11;;;;;;;2.37;1.10;;;;;;;;;;5092444;28;20666;-76
2023/02/03 05:06:38;;;;;;;2.53;0.93;;;;;;;;;;5090750;28;20237;-77
2023/02/03 05:09:05;;;;;;;4.83;1.20;;;;;;;;;;5072715;28;20290;-77
2023/02/03 05:11:32;;;;;;;2.77;1.13;;;;;;;;;;5079497;28;20322;-76
2023/02/03 05:13:59;;;;;;;3.40;1.93;;;;;;;;;;5091752;28;20298;-76
2023/02/03 05:16:26;;;;;;;3.90;1.80;;;;;;;;;;5092044;28;20288;-76
2023/02/03 05:18:54;;;;;;;4.23;1.90;;;;;;;;;;5092527;28;20289;-76
2023/02/03 05:21:22;;;;;;;2.73;1.50;;;;;;;;;;5092410;28;20222;-77
2023/02/03 05:23:49;;;;;;;2.83;1.50;;;;;;;;;;5092398;28;20245;-77
2023/02/03 05:26:16;;;;;;;3.20;1.50;;;;;;;;;;5091664;28;20670;-76
2023/02/03 05:28:44;;;;;;;3.27;1.47;;;;;;;;;;5092488;28;20278;-76
2023/02/03 05:31:11;;;;;;;3.67;1.40;;;;;;;;;;5091614;28;20311;-76
2023/02/03 05:33:38;;;;;;;2.03;1.33;;;;;;;;;;5091834;28;20285;-77
2023/02/03 05:36:05;;;;;;;3.67;1.50;;;;;;;;;;5092062;28;20197;-77
2023/02/03 05:38:34;;;;;;;4.23;1.57;;;;;;;;;;5091686;28;20228;-76
2023/02/03 05:43:46;;;;;;;2.80;1.23;;;;;;;;;;5091948;28;20227;-76
2023/02/03 05:46:13;;;;;;;3.97;1.33;;;;;;;;;;5091797;28;20287;-76
2023/02/03 05:48:40;;;;;;;3.73;1.90;;;;;;;;;;5091676;28;20291;-76
2023/02/03 05:51:08;;;;;;;4.17;2.50;;;;;;;;;;5090913;28;20257;-77
2023/02/03 05:53:36;;;;;;;4.83;2.37;;;;;;;;;;5091429;28;20291;-77
2023/02/03 05:56:03;;;;;;;4.37;1.80;;;;;;;;;;5091587;28;20222;-76
2023/02/03 05:58:30;;;;;;;2.30;1.30;;;;;;;;;;5090937;28;20693;-76
2023/02/03 06:00:58;;;;;;;4.70;1.30;;;;;;;;;;5091762;28;20230;-77
2023/02/03 06:03:25;;;;;;;2.27;1.40;;;;;;;;;;5091683;28;20225;-76
2023/02/03 06:05:52;;;;;;;4.83;1.50;;;;;;;;;;5091259;28;20236;-76
2023/02/03 06:08:19;;;;;;;2.37;1.13;;;;;;;;;;5091650;28;20285;-75
2023/02/03 06:10:48;;;;;;;4.30;1.70;;;;;;;;;;5091281;28;20899;-76
2023/02/03 06:13:16;;;;;;;4.40;1.70;;;;;;;;;;5091060;28;20286;-76
2023/02/03 06:15:44;;;;;;;2.53;1.53;;;;;;;;;;5090891;28;20232;-77
2023/02/03 06:18:11;;;;;;;3.77;2.00;;;;;;;;;;5091410;28;20221;-76
2023/02/03 06:20:38;;;;;;;4.83;2.50;;;;;;;;;;5091030;28;20717;-75
2023/02/03 06:23:05;;;;;;;3.17;1.80;;;;;;;;;;5091416;28;20637;-75
2023/02/03 06:25:32;;;;;;;3.10;1.60;;;;;;;;;;5091885;28;20417;-77
2023/02/03 06:28:01;;;;;;;3.40;1.53;;;;;;;;;;5090889;28;20195;-76
2023/02/03 06:30:28;;;;;;;3.70;1.90;;;;;;;;;;5091167;28;20244;-76
2023/02/03 06:32:55;;;;;;;2.23;1.63;;;;;;;;;;5091083;28;20225;-75
2023/02/03 06:35:22;;;;;;;6.10;1.90;;;;;;;;;;5080943;28;20298;-76
2023/02/03 06:37:50;;;;;;;5.53;1.90;;;;;;;;;;5073364;28;20677;-76
2023/02/03 06:40:17;;;;;;;3.10;1.70;;;;;;;;;;5086700;28;20283;-76
2023/02/03 06:42:45;;;;;;;4.03;1.50;;;;;;;;;;5086761;28;20281;-76
2023/02/03 06:45:14;;;;;;;3.17;1.33;;;;;;;;;;5086237;28;20574;-77
2023/02/03 06:47:41;;;;;;;4.97;1.80;;;;;;;;;;5090027;28;20750;-76
2023/02/03 06:50:09;;;;;;;2.30;1.63;;;;;;;;;;5088929;28;20253;-77
2023/02/03 06:52:36;;;;;;;2.23;1.20;;;;;;;;;;5087545;28;20280;-79
2023/02/03 06:55:04;;;;;;;2.93;1.53;;;;;;;;;;5090175;28;20204;-79
2023/02/03 06:57:31;;;;;;;3.93;2.00;;;;;;;;;;5090492;28;20220;-80
2023/02/03 06:59:58;;;;;;;4.43;1.83;;;;;;;;;;5091123;28;20377;-80
2023/02/03 07:02:27;;;;;;;3.90;1.90;;;;;;;;;;5091014;28;20229;-79
2023/02/03 07:04:54;;;;;;;5.07;2.07;;;;;;;;;;5090985;28;20205;-79
2023/02/03 07:07:21;;;;;;;3.73;2.30;;;;;;;;;;5090773;28;20748;-80
2023/02/03 07:09:48;;;;;;;4.83;2.57;;;;;;;;;;5094988;28;20230;-79
2023/02/03 07:12:16;;;;;;;6.57;2.77;;;;;;;;;;5094841;28;20235;-79
2023/02/03 07:14:43;;;;;;;4.97;3.23;;;;;;;;;;5094867;28;20221;-80
2023/02/03 07:17:10;;;;;;;5.97;3.50;;;;;;;;;;5094704;28;20281;-80
2023/02/03 07:19:39;;;;;;;4.90;2.80;;;;;;;;;;5094824;28;20285;-80
2023/02/03 07:22:06;;;;;;;4.47;2.50;;;;;;;;;;5094707;28;20199;-80
2023/02/03 07:24:33;;;;;;;10.03;3.27;;;;;;;;;;5094690;28;20198;-80
2023/02/03 07:27:00;;;;;;;4.70;3.50;;;;;;;;;;5094295;28;20324;-79
2023/02/03 07:29:27;;;;;;;10.10;4.37;;;;;;;;;;5094723;28;20281;-80
2023/02/03 07:31:54;;;;;;;6.40;3.90;;;;;;;;;;5094245;28;20333;-78
2023/02/03 07:34:22;;;;;;;7.20;4.10;;;;;;;;;;5094533;28;20632;-79
2023/02/03 07:36:50;;;;;;;7.77;4.00;;;;;;;;;;5094525;28;20834;-79
2023/02/03 07:39:17;;;;;;;6.13;3.93;;;;;;;;;;5094661;28;20399;-79
2023/02/03 07:41:45;;;;;;;5.27;2.77;;;;;;;;;;5094268;28;20226;-80
2023/02/03 07:44:12;;;;;;;4.27;2.73;;;;;;;;;;5094927;28;20193;-79
2023/02/03 07:46:43;;;;;;;3.53;2.17;;;;;;;;;;5094266;28;20210;-79
2023/02/03 07:49:10;;;;;;;4.17;2.20;;;;;;;;;;5094257;28;20577;-80
2023/02/03 07:51:38;;;;;;;3.80;2.27;;;;;;;;;;5094327;28;20666;-79
2023/02/03 07:54:06;;;;;;;5.03;2.83;;;;;;;;;;5094216;28;20247;-80
2023/02/03 07:56:34;;;;;;;7.33;3.00;;;;;;;;;;5094253;28;20217;-79
2023/02/03 07:59:01;;;;;;;4.37;2.77;;;;;;;;;;5094582;28;20675;-79
2023/02/03 08:01:30;;;;;;;3.73;2.47;;;;;;;;;;5094113;28;20198;-80
2023/02/03 08:03:57;;;;;;;2.60;2.00;;;;;;;;;;5093970;28;20244;-79
2023/02/03 08:06:24;;;;;;;3.20;2.17;;;;;;;;;;5093921;28;20205;-79
2023/02/03 08:08:52;;;;;;;4.30;1.80;;;;;;;;;;5093744;28;20223;-80
2023/02/03 08:11:21;;;;;;;3.33;1.70;;;;;;;;;;5093923;28;20221;-80
2023/02/03 08:13:48;;;;;;;5.93;2.20;;;;;;;;;;5093925;28;20222;-80
2023/02/03 08:16:15;;;;;;;3.40;1.60;;;;;;;;;;5094036;28;20227;-80
2023/02/03 08:18:43;;;;;;;2.60;1.77;;;;;;;;;;5093606;28;20236;-79
2023/02/03 08:21:10;;;;;;;6.97;2.17;;;;;;;;;;5094146;28;20741;-80
2023/02/03 08:23:37;;;;;;;3.47;2.27;;;;;;;;;;5093816;28;20244;-79
2023/02/03 08:26:04;;;;;;;4.57;2.40;;;;;;;;;;5093792;28;20313;-80
2023/02/03 08:28:33;;;;;;;4.77;2.50;;;;;;;;;;5093583;28;20297;-79
2023/02/03 08:31:00;;;;;;;3.70;2.40;;;;;;;;;;5093320;28;20246;-80
2023/02/03 08:33:28;;;;;;;2.93;2.07;;;;;;;;;;5094056;28;20277;-80
2023/02/03 08:35:55;;;;;;;3.30;2.03;;;;;;;;;;5093468;28;20202;-80
2023/02/03 08:38:22;;;;;;;4.63;3.10;;;;;;;;;;5093096;28;20560;-79
2023/02/03 08:40:49;;;;;;;4.73;3.50;;;;;;;;;;5093324;28;20234;-80
2023/02/03 08:43:17;;;;;;;7.17;3.57;;;;;;;;;;5093570;28;20294;-79
2023/02/03 08:45:45;;;;;;;5.93;4.00;;;;;;;;;;5093633;28;20226;-80
2023/02/03 08:48:12;;;;;;;7.60;4.33;;;;;;;;;;5092902;28;20237;-79
2023/02/03 08:50:43;;;;;;;7.97;3.57;;;;;;;;;;5093229;28;20723;-79
2023/02/03 08:53:10;;;;;;;8.37;4.03;;;;;;;;;;5092837;28;20207;-80
2023/02/03 08:55:39;;;;;;;15.87;4.97;;;;;;;;;;5093012;28;20289;-80
2023/02/03 08:58:06;;;;;;;7.83;4.50;;;;;;;;;;5092846;28;20289;-80
2023/02/03 09:00:33;;;;;;;10.40;5.80;;;;;;;;;;5093200;28;20657;-79
2023/02/03 09:03:03;;;;;;;11.00;6.60;;;;;;;;;;5093170;28;20198;-80
2023/02/03 09:05:31;;;;;;;5.07;3.00;;;;;;;;;;5093112;28;20281;-79
2023/02/03 09:07:59;;;;;;;5.33;3.10;;;;;;;;;;5092684;28;20226;-78
2023/02/03 09:10:26;;;;;;;7.00;3.00;;;;;;;;;;5092676;28;20654;-80
2023/02/03 09:12:53;;;;;;;3.93;2.40;;;;;;;;;;5092879;28;20317;-80
2023/02/03 09:15:20;;;;;;;4.53;2.30;;;;;;;;;;5092928;28;20286;-80
2023/02/03 09:17:47;;;;;;;4.07;2.00;;;;;;;;;;5092440;28;20222;-80
2023/02/03 09:20:16;;;;;;;3.80;1.77;;;;;;;;;;5092655;28;20624;-79
2023/02/03 09:22:43;;;;;;;3.77;1.90;;;;;;;;;;5092290;28;20202;-79
2023/02/03 09:25:10;;;;;;;6.60;2.57;;;;;;;;;;5092040;28;20247;-80
2023/02/03 09:27:38;;;;;;;3.63;2.20;;;;;;;;;;5092624;28;20218;-79
2023/02/03 09:30:05;;;;;;;7.30;3.77;;;;;;;;;;5092299;28;20235;-80
2023/02/03 09:32:32;;;;;;;5.80;4.50;;;;;;;;;;5091769;28;20258;-80
2023/02/03 09:35:00;;;;;;;4.80;2.83;;;;;;;;;;5092430;28;20195;-79
2023/02/03 09:37:29;;;;;;;4.30;2.77;;;;;;;;;;5091765;28;20233;-80
2023/02/03 09:39:57;;;;;;;8.37;2.70;;;;;;;;;;5092347;28;20286;-79
2023/02/03 09:42:38;;;;;;;3.67;2.33;;;;;;;;;;5092095;28;20226;-79
2023/02/03 09:45:11;;;;;;;6.33;2.80;;;;;;;;;;5092125;28;20232;-79
2023/02/03 09:47:40;;;;;;;4.17;2.40;;;;;;;;;;5091941;28;20290;-79
2023/02/03 09:50:08;;;;;;;6.43;2.70;;;;;;;;;;5091797;28;20289;-80
2023/02/03 09:52:38;;;;;;;4.70;2.77;;;;;;;;;;5091912;28;20226;-80
2023/02/03 09:55:07;;;;;;;4.10;2.23;;;;;;;;;;5092051;28;20209;-80
2023/02/03 09:57:37;;;;;;;6.00;2.60;;;;;;;;;;5092349;28;20229;-81
2023/02/03 10:00:15;;;;;;;5.23;2.37;;;;;;;;;;5091726;28;20218;-79
2023/02/03 10:02:48;;;;;;;3.60;2.10;;;;;;;;;;5091707;28;20198;-79
2023/02/03 10:05:19;;;;;;;4.40;2.47;;;;;;;;;;5091420;28;20616;-80
2023/02/03 10:07:54;;;;;;;6.83;2.37;;;;;;;;;;5091542;28;20289;-80
2023/02/03 10:10:26;;;;;;;6.47;2.63;;;;;;;;;;5091796;28;20284;-79
2023/02/03 10:12:57;;;;;;;4.93;2.17;;;;;;;;;;5091793;28;20250;-80
2023/02/03 10:15:39;;;;;;;6.53;2.50;;;;;;;;;;5091735;28;20266;-79
2023/02/03 10:18:07;;;;;;;4.40;2.20;;;;;;;;;;5091334;28;20739;-80
2023/02/03 10:20:36;;;;;;;4.80;2.40;;;;;;;;;;5091734;28;20194;-80
2023/02/03 10:23:07;;;;;;;3.83;2.17;;;;;;;;;;5091717;28;20206;-79
2023/02/03 10:25:36;;;;;;;4.40;2.60;;;;;;;;;;5091522;28;20652;-80
2023/02/03 10:28:05;;;;;;;6.33;2.57;;;;;;;;;;5091552;28;20285;-80
2023/02/03 10:30:43;;;;;;;5.83;3.00;;;;;;;;;;5091375;28;20202;-80
2023/02/03 10:33:12;;;;;;;5.00;3.07;;;;;;;;;;5091463;28;20283;-80
2023/02/03 10:35:42;;;;;;;3.43;2.40;;;;;;;;;;5091183;28;20233;-80
2023/02/03 10:38:14;;;;;;;3.03;2.60;;;;;;;;;;5091534;28;20280;-79
2023/02/03 10:40:41;;;;;;;3.63;2.40;;;;;;;;;;5091271;28;20611;-80
2023/02/03 10:45:54;;;;;;;2.77;2.10;;;;;;;;;;5095646;28;20197;-79
2023/02/03 10:48:22;;;;;;;3.47;2.23;;;;;;;;;;5095398;28;20732;-80
2023/02/03 10:50:50;;;;;;;6.80;2.40;;;;;;;;;;5095403;28;20229;-79
2023/02/03 10:53:23;;;;;;;3.00;2.10;;;;;;;;;;5095345;28;20312;-79
2023/02/03 10:55:51;;;;;;;3.40;1.97;;;;;;;;;;5095583;28;20225;-81
2023/02/03 10:58:22;;;;;;;1.93;1.73;;;;;;;;;;5095537;28;20663;-79
2023/02/03 11:00:55;;;;;;;3.07;2.20;;;;;;;;;;5095346;28;20222;-79
2023/02/03 11:03:24;;;;;;;2.63;1.93;;;;;;;;;;5094941;28;20207;-80
2023/02/03 11:06:04;;;;;;;4.93;2.57;;;;;;;;;;5094993;28;20198;-79
2023/02/03 11:08:33;;;;;;;3.80;2.23;;;;;;;;;;5094935;28;20237;-80
2023/02/03 11:11:04;;;;;;;3.10;1.93;;;;;;;;;;5095138;28;20294;-79
2023/02/03 11:13:31;;;;;;;2.50;2.07;;;;;;;;;;5095481;28;20261;-79
2023/02/03 11:16:00;;;;;;;2.83;1.93;;;;;;;;;;5094935;28;20222;-80
2023/02/03 11:18:36;;;;;;;2.73;1.90;;;;;;;;;;5094392;28;20737;-79
2023/02/03 11:21:07;;;;;;;2.47;1.93;;;;;;;;;;5095070;28;20233;-80
2023/02/03 11:23:35;;;;;;;2.93;1.80;;;;;;;;;;5095038;28;20277;-79
2023/02/03 11:26:10;;;;;;;4.20;1.90;;;;;;;;;;5094619;28;20678;-80
2023/02/03 11:28:37;;;;;;;3.67;1.70;;;;;;;;;;5094499;28;20285;-79
2023/02/03 11:31:04;;;;;;;3.27;2.07;;;;;;;;;;5094881;28;20281;-79
2023/02/03 11:33:32;;;;;;;4.27;2.07;;;;;;;;;;5094471;28;20317;-79
2023/02/03 11:36:00;;;;;;;2.17;1.87;;;;;;;;;;5094738;28;20599;-80
2023/02/03 11:38:31;;;;;;;2.87;2.10;;;;;;;;;;5094711;28;20230;-79
2023/02/03 11:41:02;;;;;;;3.00;2.13;;;;;;;;;;5094416;28;20197;-79
2023/02/03 11:43:30;;;;;;;3.13;2.47;;;;;;;;;;5094528;28;20717;-79
2023/02/03 11:46:01;;;;;;;3.47;2.80;;;;;;;;;;5094251;28;20293;-79
2023/02/03 11:48:30;;;;;;;4.17;2.97;;;;;;;;;;5094205;28;20694;-79
2023/02/03 11:51:00;;;;;;;5.27;3.10;;;;;;;;;;5093836;28;20297;-80
2023/02/03 11:53:31;;;;;;;4.40;3.17;;;;;;;;;;5093550;28;20798;-79
2023/02/03 11:56:10;;;;;;;3.70;2.47;;;;;;;;;;5094322;28;20658;-80
2023/02/03 11:59:02;;;;;;;2.90;2.33;;;;;;;;;;5094293;28;20289;-79
2023/02/03 12:01:36;;;;;;;3.50;2.20;;;;;;;;;;5093989;28;20615;-79
2023/02/03 12:04:20;;;;;;;3.30;2.50;;;;;;;;;;5093793;28;20251;-79
2023/02/03 12:06:54;;;;;;;3.83;2.30;;;;;;;;;;5093797;28;20285;-80
2023/02/03 12:09:26;;;;;;;2.53;2.33;;;;;;;;;;5093947;28;20233;-79
2023/02/03 12:12:11;;;;;;;3.90;2.33;;;;;;;;;;5093548;28;20233;-80
2023/02/03 12:14:48;;;;;;;4.07;2.40;;;;;;;;;;5093881;28;20282;-80
2023/02/03 12:17:34;;;;;;;3.87;2.23;;;;;;;;;;5093772;28;20218;-80
2023/02/03 12:20:06;;;;;;;3.37;2.13;;;;;;;;;;5093700;28;20194;-79
2023/02/03 12:22:40;;;;;;;3.23;2.00;;;;;;;;;;5093768;28;20218;-80
2023/02/03 12:25:15;;;;;;;2.93;1.80;;;;;;;;;;5093409;28;20194;-80
2023/02/03 12:27:47;;;;;;;2.43;1.63;;;;;;;;;;5093520;28;20224;-79
2023/02/03 12:30:16;;;;;;;3.13;1.40;;;;;;;;;;5093538;28;20238;-80
2023/02/03 12:32:46;;;;;;;1.47;1.10;;;;;;;;;;5093611;28;20676;-80
2023/02/03 12:35:17;;;;;;;2.00;1.40;;;;;;;;;;5093623;28;20711;-80
2023/02/03 12:37:46;;;;;;;2.43;1.13;;;;;;;;;;5093197;28;20742;-79
2023/02/03 12:40:17;;;;;;;2.63;1.40;;;;;;;;;;5093539;28;20628;-79
2023/02/03 12:42:48;;;;;;;4.17;1.30;;;;;;;;;;5093570;28;20237;-79
2023/02/03 12:45:17;;;;;;;2.53;1.23;;;;;;;;;;5092762;28;20226;-80
2023/02/03 12:47:46;;;;;;;1.37;1.00;;;;;;;;;;5093398;28;20233;-79
2023/02/03 12:50:17;;;;;;;3.70;1.07;;;;;;;;;;5093304;28;20249;-79
2023/02/03 12:52:46;;;;;;;1.67;1.20;;;;;;;;;;5093204;28;20307;-79
2023/02/03 12:55:19;;;;;;;2.97;1.23;;;;;;;;;;5092932;28;20232;-79
2023/02/03 12:57:53;;;;;;;2.17;1.43;;;;;;;;;;5092913;28;20277;-77
2023/02/03 13:00:26;;;;;;;3.03;1.50;;;;;;;;;;5092892;28;20198;-79
2023/02/03 13:03:23;;;;;;;3.47;1.60;;;;;;;;;;5093189;28;20203;-78
2023/02/03 13:05:54;;;;;;;3.13;1.33;;;;;;;;;;5049517;28;20258;-79
2023/02/03 13:08:29;;;;;;;2.30;1.57;;;;;;;;;;5050311;28;20235;-79
2023/02/03 13:11:00;;;;;;;2.20;1.40;;;;;;;;;;5050256;28;20286;-79
2023/02/03 13:13:33;;;;;;;4.00;1.60;;;;;;;;;;5049871;28;20322;-79
2023/02/03 13:16:01;;;;;;;2.47;1.80;;;;;;;;;;5050650;28;20317;-79
2023/02/03 13:18:30;;;;;;;2.93;1.93;;;;;;;;;;5049821;28;20648;-78
2023/02/03 13:20:57;;;;;;;2.77;1.90;;;;;;;;;;5050350;28;20231;-79
2023/02/03 13:23:25;;;;;;;3.57;2.20;;;;;;;;;;5049747;28;20287;-79
2023/02/03 13:26:21;;;;;;;4.40;1.90;;;;;;;;;;5049876;28;20289;-79
2023/02/03 13:28:56;;;;;;;4.13;1.90;;;;;;;;;;5049476;28;20288;-79
2023/02/03 13:31:30;;;;;;;2.93;1.80;;;;;;;;;;5049973;28;20226;-79
2023/02/03 13:34:07;;;;;;;1.90;1.70;;;;;;;;;;5049830;28;20328;-78
2023/02/03 13:36:49;;;;;;;4.07;1.50;;;;;;;;;;5049643;28;20299;-80
2023/02/03 13:39:25;;;;;;;2.67;1.47;;;;;;;;;;5056448;28;20222;-79
2023/02/03 13:41:54;;;;;;;2.70;1.80;;;;;;;;;;5092416;28;20284;-79
2023/02/03 13:44:27;;;;;;;2.77;1.87;;;;;;;;;;5091738;28;20222;-79
2023/02/03 13:46:56;;;;;;;4.87;1.80;;;;;;;;;;5092345;28;20202;-80
2023/02/03 13:49:25;;;;;;;3.43;1.80;;;;;;;;;;5091974;28;20230;-78
2023/02/03 13:51:52;;;;;;;3.23;2.10;;;;;;;;;;5092386;28;20654;-79
2023/02/03 13:54:24;;;;;;;2.57;2.07;;;;;;;;;;5091866;28;20324;-79
2023/02/03 13:56:55;;;;;;;2.70;1.90;;;;;;;;;;5091215;28;20225;-79
2023/02/03 13:59:41;;;;;;;1.93;1.47;;;;;;;;;;5092212;28;20939;-79
2023/02/03 14:02:28;;;;;;;2.00;1.60;;;;;;;;;;5092135;28;20277;-78
2023/02/03 14:04:56;;;;;;;3.00;1.90;;;;;;;;;;5091712;28;20194;-79
2023/02/03 14:07:28;;;;;;;4.60;1.90;;;;;;;;;;5091694;28;20757;-79
2023/02/03 14:10:08;;;;;;;3.20;2.07;;;;;;;;;;5091673;28;20241;-78
2023/02/03 14:12:38;;;;;;;3.33;1.90;;;;;;;;;;5091292;28;20411;-79
2023/02/03 14:15:23;;;;;;;2.97;2.10;;;;;;;;;;5091691;28;20198;-79
2023/02/03 14:18:01;;;;;;;2.00;1.80;;;;;;;;;;5091361;28;20750;-77
2023/02/03 14:20:47;;;;;;;2.37;1.83;;;;;;;;;;5091402;28;20233;-80
2023/02/03 14:23:17;;;;;;;3.60;1.87;;;;;;;;;;5091546;28;20194;-79
2023/02/03 14:25:46;;;;;;;3.50;2.10;;;;;;;;;;5090764;28;20316;-78
2023/02/03 14:28:16;;;;;;;5.07;2.63;;;;;;;;;;5089231;28;20686;-79
2023/02/03 14:31:04;;;;;;;3.57;2.23;;;;;;;;;;5091395;28;20198;-78
2023/02/03 14:33:52;;;;;;;3.87;2.77;;;;;;;;;;5091227;28;20671;-79
2023/02/03 14:36:30;;;;;;;3.67;2.80;;;;;;;;;;5091107;28;20194;-77
2023/02/03 14:39:00;;;;;;;3.23;2.70;;;;;;;;;;5083226;28;20945;-78
2023/02/03 14:41:30;;;;;;;4.67;2.63;;;;;;;;;;5088834;28;20198;-78
2023/02/03 14:44:03;;;;;;;3.63;2.13;;;;;;;;;;5089282;28;20240;-78
2023/02/03 14:46:40;;;;;;;2.37;2.17;;;;;;;;;;5088568;28;20210;-78
2023/02/03 14:49:15;;;;;;;4.33;2.03;;;;;;;;;;5078728;28;20310;-79
2023/02/03 14:51:56;;;;;;;3.27;2.23;;;;;;;;;;5089674;28;20292;-78
2023/02/03 14:54:33;;;;;;;4.13;1.90;;;;;;;;;;5089436;28;20260;-78
2023/02/03 14:57:18;;;;;;;2.90;1.60;;;;;;;;;;5086443;28;20194;-80
2023/02/03 14:59:48;;;;;;;1.30;1.20;;;;;;;;;;5082167;28;20222;-78
2023/02/03 15:02:18;;;;;;;3.00;1.30;;;;;;;;;;5086223;28;20198;-79
2023/02/03 15:04:46;;;;;;;1.50;1.20;;;;;;;;;;5090648;28;20204;-78